PDT,Max TemperatureF,Mean TemperatureF,Min TemperatureF,Max Dew PointF,MeanDew PointF,Min DewpointF,Max Humidity, Mean Humidity, Min Humidity, Max Sea Level PressureIn, Mean Sea Level PressureIn, Min Sea Level PressureIn, Max VisibilityMiles, Mean VisibilityMiles, Min VisibilityMiles, Max Wind SpeedMPH, Mean Wind SpeedMPH, Max Gust SpeedMPH,PrecipitationIn, CloudCover, Events, WindDirDegrees
2013-10-1,51,48,44,48,45,39,100,90,71,30.12,29.99,29.87,9,9,9,15,3,22,0.04,8,Rain,222
2013-10-2,52,48,45,48,47,45,100,93,79,30.18,30.12,30.08,9,9,5,12,5,,0.12,7,Rain,117
2013-10-3,61,52,44,50,46,45,100,85,47,30.48,30.35,30.20,9,9,9,8,5,,0.00,5,,122
2013-10-4,61,51,41,48,45,41,100,78,46,30.53,30.44,30.37,9,8,2,12,5,,0.00,4,Rain,109
2013-10-5,62,55,48,54,49,46,94,82,56,30.40,30.32,30.18,9,7,3,9,5,,0.00,8,,104
2013-10-6,70,58,47,54,51,46,100,80,41,30.17,29.97,29.80,9,9,5,10,6,,0.00,0,,104
2013-10-7,57,52,46,52,50,45,100,90,63,29.92,29.86,29.80,9,7,4,22,8,33,0.87,8,Rain,257
2013-10-8,55,49,43,50,46,43,100,89,65,30.15,29.95,29.88,9,7,2,14,7,24,0.35,7,Rain,236
2013-10-9,57,48,39,45,42,38,100,82,50,30.20,30.08,29.96,9,9,9,12,8,,0.00,3,Rain,122
2013-10-10,56,50,43,46,44,43,100,85,52,30.09,30.00,29.94,9,9,6,8,2,,0.00,7,,116
2013-10-11,56,49,42,46,43,41,100,82,52,30.17,30.13,30.09,9,7,1,10,5,17,0.00,4,,57
2013-10-12,57,50,43,45,43,39,93,75,42,30.25,30.15,30.10,9,9,9,9,6,,0.00,7,,108
2013-10-13,60,50,40,43,40,37,93,75,34,30.42,30.33,30.27,9,9,9,10,6,,0.00,0,,90
2013-10-14,61,50,39,45,41,37,93,77,38,30.50,30.44,30.37,9,9,9,14,8,,0.00,0,,91
2013-10-15,60,50,40,49,44,40,100,82,51,30.43,30.31,30.21,9,9,9,12,8,,0.00,3,Rain,119
2013-10-16,65,56,47,48,46,44,94,76,43,30.25,30.21,30.16,9,9,9,9,6,,0.00,3,,84
2013-10-17,64,53,42,46,43,39,87,73,38,30.36,30.28,30.22,9,9,9,14,9,17,0.00,0,,89
2013-10-18,62,52,42,46,43,40,93,79,43,30.31,30.24,30.15,9,9,9,13,7,,0.00,0,,96
2013-10-19,60,50,41,48,44,40,100,86,54,30.22,30.19,30.14,9,7,2,12,8,,0.00,0,,95
2013-10-20,63,52,42,50,45,42,96,87,51,30.24,30.21,30.13,9,5,1,15,9,17,0.00,0,,91
2013-10-21,66,56,45,50,47,44,94,83,47,30.21,30.16,30.10,9,9,5,13,8,17,0.00,0,,93
2013-10-22,65,55,45,50,47,45,94,79,47,30.19,30.13,30.05,9,9,9,14,9,18,0.00,0,,92
2013-10-23,65,56,48,48,45,42,82,70,39,30.14,30.08,30.00,9,9,9,16,11,21,0.00,0,,92
2013-10-24,61,53,45,48,45,43,93,79,49,30.12,30.08,30.02,9,9,9,13,9,18,0.00,0,,96
2013-10-25,53,48,44,46,44,41,93,81,61,30.35,30.25,30.13,9,9,9,14,9,18,0.00,2,,110
2013-10-26,55,50,45,46,44,41,87,78,64,30.38,30.29,30.15,9,9,7,20,7,24,0.00,5,Rain,160
2013-10-27,57,52,46,48,45,32,100,83,30,30.14,30.04,29.99,9,7,2,21,9,31,0.00,8,Rain,139
2013-10-28,55,50,46,32,27,25,50,37,21,30.17,30.11,30.04,9,9,9,17,13,28,0.00,0,,109
2013-10-29,51,44,36,36,31,25,87,62,43,30.09,30.04,29.97,9,9,9,16,9,22,0.00,0,,101
2013-10-30,53,44,34,41,37,33,93,74,47,30.12,30.09,30.06,9,9,9,9,6,,0.00,7,Rain,156
2013-10-31,51,47,43,49,47,43,100,94,82,30.25,30.14,30.07,9,6,1,12,7,18,0.00,8,Rain,243